Marquette, MI

5:28 AM EST on November 29, 2014 (GMT -0500)
Harvey, MI | Change Station
CLOSE
Current Station
Personal Weather Station
Location: Marquette, MI
Elevation: 725 ft
Nearby Weather Stations

Elev 725 ft 46.47 °N, 87.37 °W | Updated 4 minutes ago

Overcast
Overcast
24.7 °F
Feels Like 25 °F
N
0.0
Wind Variable Wind from SSE
Gusts 2.0 mph

Today
High -- | Low -- °F
--% Chance of Precip.
Yesterday
High -- | Low -- °F
Precip. -- in
8:10 AM 5:05 PM
Waxing Crescent, 50% visible
Pressure 29.70 in
Visibility 5.0 miles
Clouds Overcast 800 ft
Windchill 25 °F
Dew Point 21 °F
Humidity 85%
Rainfall 0.00 in
Snow Depth Not available.
UV 0.0 out of 12
Pollen .10 out of 12
Air Quality Not available.
Flu Activity Not available.
METAR KSAW 291016Z AUTO 21006KT 5SM BR OVC008 M05/M06 A2970 RMK AO2 T10501061

More Conditions Fewer Conditions

Pressure 29.70 in
Visibility 5.0 miles
Clouds Overcast 800 ft
Windchill 25 °F
Dew Point 21 °F
Humidity 85%
Rainfall 0.00 in
Snow Depth Not available.
UV 0.0 out of 12
Pollen .10 out of 12
Air Quality Not available.
Flu Activity Not available.
METAR KSAW 291016Z AUTO 21006KT 5SM BR OVC008 M05/M06 A2970 RMK AO2 T10501061

More Conditions Fewer Conditions

10-Day Weather Forecast

Almanac

Astronomy

Nov. 29, 2014 Rise Set
Actual Time
Civil Twilight
Nautical Twilight
Astronomical Twilight
Moon
Length of Visible Light
Length of Day
Tomorrow will be .
, % of the Moon is Illuminated

Today's Extremes

State Highs State Lows

Community

WunderPhotos

Upload Photos

1,774,442 photos uploaded!

WunderBlogs® & News

Nearby

Air Quality

  Air Quality AQ Index Pollutant
Not available.

Snow Depth

Station Depth Elevation

Earthquake Activity

City Distance Mag. Time & Date
Minimum magnitude displayed is 2.5.

Coastal Water Temperatures

Place Temperature

Nearby Weather Stations